sensor_id;sensor_type;location;lat;lon;timestamp;pressure;altitude;pressure_sealevel;temperature;humidity
63691;BME280;49837;57.280;27.070;2023-04-05T00:00:43;100596.78;;;-0.83;100.0
63691;BME280;49837;57.280;27.070;2023-04-05T00:01:45;100599.41;;;-0.86;100.0
63691;BME280;49837;57.280;27.070;2023-04-05T00:02:44;100597.31;;;-0.85;100.0
63691;BME280;49837;57.280;27.070;2023-04-05T00:03:44;100594.77;;;-0.86;100.0
63691;BME280;49837;57.280;27.070;2023-04-05T00:04:45;100594.97;;;-0.87;100.0
63691;BME280;49837;57.280;27.070;2023-04-05T00:05:45;100594.91;;;-0.86;100.0
63691;BME280;49837;57.280;27.070;2023-04-05T00:06:47;100592.72;;;-0.85;100.0
63691;BME280;49837;57.280;27.070;2023-04-05T00:07:46;100595.53;;;-0.84;100.0
63691;BME280;49837;57.280;27.070;2023-04-05T00:08:46;100602.43;;;-0.8;100.0
63691;BME280;49837;57.280;27.070;2023-04-05T00:09:47;100604.31;;;-0.8;100.0
63691;BME280;49837;57.280;27.070;2023-04-05T00:10:47;100603.49;;;-0.8;100.0
63691;BME280;49837;57.280;27.070;2023-04-05T00:11:47;100603.36;;;-0.83;100.0
63691;BME280;49837;57.280;27.070;2023-04-05T00:12:47;100603.58;;;-0.83;100.0
63691;BME280;49837;57.280;27.070;2023-04-05T00:13:48;100608.47;;;-0.81;100.0
63691;BME280;49837;57.280;27.070;2023-04-05T00:14:48;100611.05;;;-0.79;100.0
63691;BME280;49837;57.280;27.070;2023-04-05T00:15:49;100608.78;;;-0.78;100.0
63691;BME280;49837;57.280;27.070;2023-04-05T00:16:49;100615.25;;;-0.75;100.0
63691;BME280;49837;57.280;27.070;2023-04-05T00:17:49;100616.04;;;-0.76;100.0
63691;BME280;49837;57.280;27.070;2023-04-05T00:18:49;100612.28;;;-0.79;100.0
63691;BME280;49837;57.280;27.070;2023-04-05T00:19:50;100617.41;;;-0.8;100.0
63691;BME280;49837;57.280;27.070;2023-04-05T00:20:51;100613.43;;;-0.79;100.0
63691;BME280;49837;57.280;27.070;2023-04-05T00:21:50;100610.98;;;-0.79;100.0
63691;BME280;49837;57.280;27.070;2023-04-05T00:22:51;100617.45;;;-0.82;100.0
63691;BME280;49837;57.280;27.070;2023-04-05T00:23:53;100613.47;;;-0.87;100.0
63691;BME280;49837;57.280;27.070;2023-04-05T00:24:51;100611.62;;;-0.86;100.0
63691;BME280;49837;57.280;27.070;2023-04-05T00:25:52;100614.77;;;-0.81;100.0
63691;BME280;49837;57.280;27.070;2023-04-05T00:26:52;100616.92;;;-0.8;100.0
63691;BME280;49837;57.280;27.070;2023-04-05T00:27:52;100615.06;;;-0.79;100.0
63691;BME280;49837;57.280;27.070;2023-04-05T00:28:53;100617.44;;;-0.79;100.0
63691;BME280;49837;57.280;27.070;2023-04-05T00:29:53;100617.05;;;-0.78;100.0
63691;BME280;49837;57.280;27.070;2023-04-05T00:30:53;100613.34;;;-0.79;100.0
63691;BME280;49837;57.280;27.070;2023-04-05T00:31:54;100614.3;;;-0.8;100.0
63691;BME280;49837;57.280;27.070;2023-04-05T00:32:54;100611.57;;;-0.78;100.0
63691;BME280;49837;57.280;27.070;2023-04-05T00:33:54;100607.26;;;-0.8;100.0
63691;BME280;49837;57.280;27.070;2023-04-05T00:34:55;100607.7;;;-0.79;100.0
63691;BME280;49837;57.280;27.070;2023-04-05T00:35:55;100606.09;;;-0.81;100.0
63691;BME280;49837;57.280;27.070;2023-04-05T00:36:55;100607.48;;;-0.81;100.0
63691;BME280;49837;57.280;27.070;2023-04-05T00:37:56;100607.02;;;-0.83;100.0
63691;BME280;49837;57.280;27.070;2023-04-05T00:38:56;100605.55;;;-0.83;100.0
63691;BME280;49837;57.280;27.070;2023-04-05T00:39:56;100608.38;;;-0.81;100.0
63691;BME280;49837;57.280;27.070;2023-04-05T00:40:57;100603.49;;;-0.8;100.0
63691;BME280;49837;57.280;27.070;2023-04-05T00:41:57;100607.45;;;-0.79;100.0
63691;BME280;49837;57.280;27.070;2023-04-05T00:42:58;100608.16;;;-0.8;100.0
63691;BME280;49837;57.280;27.070;2023-04-05T00:43:58;100606.75;;;-0.81;100.0
63691;BME280;49837;57.280;27.070;2023-04-05T00:44:58;100607.98;;;-0.84;100.0
63691;BME280;49837;57.280;27.070;2023-04-05T00:46:00;100610.11;;;-0.84;100.0
63691;BME280;49837;57.280;27.070;2023-04-05T00:47:05;100607.73;;;-0.87;100.0
63691;BME280;49837;57.280;27.070;2023-04-05T00:48:04;100608.73;;;-0.87;100.0
63691;BME280;49837;57.280;27.070;2023-04-05T00:49:03;100608.62;;;-0.89;100.0
63691;BME280;49837;57.280;27.070;2023-04-05T00:50:05;100605.78;;;-0.88;100.0
63691;BME280;49837;57.280;27.070;2023-04-05T00:51:04;100604.98;;;-0.86;100.0
63691;BME280;49837;57.280;27.070;2023-04-05T00:52:05;100604.46;;;-0.85;100.0
63691;BME280;49837;57.280;27.070;2023-04-05T00:53:05;100598.73;;;-0.87;100.0
63691;BME280;49837;57.280;27.070;2023-04-05T00:54:05;100600.83;;;-0.85;100.0
63691;BME280;49837;57.280;27.070;2023-04-05T00:55:07;100602.58;;;-0.84;100.0
63691;BME280;49837;57.280;27.070;2023-04-05T00:56:07;100598.66;;;-0.87;100.0
63691;BME280;49837;57.280;27.070;2023-04-05T00:57:06;100598.39;;;-0.89;100.0
63691;BME280;49837;57.280;27.070;2023-04-05T00:58:06;100598.56;;;-0.87;100.0
63691;BME280;49837;57.280;27.070;2023-04-05T00:59:07;100599.44;;;-0.85;100.0
63691;BME280;49837;57.280;27.070;2023-04-05T01:00:08;100595.18;;;-0.85;100.0
63691;BME280;49837;57.280;27.070;2023-04-05T01:01:18;100595.12;;;-0.85;100.0
63691;BME280;49837;57.280;27.070;2023-04-05T01:02:17;100596.95;;;-0.86;100.0
63691;BME280;49837;57.280;27.070;2023-04-05T01:03:12;100595.64;;;-0.86;100.0
63691;BME280;49837;57.280;27.070;2023-04-05T01:04:13;100597.12;;;-0.86;100.0
63691;BME280;49837;57.280;27.070;2023-04-05T01:06:27;100597.0;;;-0.92;100.0
63691;BME280;49837;57.280;27.070;2023-04-05T01:07:25;100598.14;;;-0.88;100.0
63691;BME280;49837;57.280;27.070;2023-04-05T01:10:34;100592.0;;;-0.91;100.0
63691;BME280;49837;57.280;27.070;2023-04-05T01:11:33;100593.75;;;-0.91;100.0
63691;BME280;49837;57.280;27.070;2023-04-05T01:12:33;100595.22;;;-0.93;100.0
63691;BME280;49837;57.280;27.070;2023-04-05T01:13:33;100596.81;;;-0.96;100.0
63691;BME280;49837;57.280;27.070;2023-04-05T01:15:35;100596.09;;;-0.91;100.0
63691;BME280;49837;57.280;27.070;2023-04-05T01:16:35;100599.72;;;-0.91;100.0
63691;BME280;49837;57.280;27.070;2023-04-05T01:17:36;100600.36;;;-0.92;100.0
63691;BME280;49837;57.280;27.070;2023-04-05T01:18:36;100600.59;;;-0.89;100.0
63691;BME280;49837;57.280;27.070;2023-04-05T01:19:36;100601.0;;;-0.88;100.0
63691;BME280;49837;57.280;27.070;2023-04-05T01:20:41;100605.34;;;-0.89;100.0
63691;BME280;49837;57.280;27.070;2023-04-05T01:27:01;100603.88;;;-0.89;100.0
63691;BME280;49837;57.280;27.070;2023-04-05T01:36:39;100607.35;;;-0.97;100.0
63691;BME280;49837;57.280;27.070;2023-04-05T01:37:33;100612.86;;;-0.96;100.0
63691;BME280;49837;57.280;27.070;2023-04-05T01:38:32;100614.12;;;-0.95;100.0
63691;BME280;49837;57.280;27.070;2023-04-05T01:39:35;100616.66;;;-0.94;100.0
63691;BME280;49837;57.280;27.070;2023-04-05T01:40:35;100616.19;;;-0.94;100.0
63691;BME280;49837;57.280;27.070;2023-04-05T01:41:35;100619.2;;;-0.95;100.0
63691;BME280;49837;57.280;27.070;2023-04-05T01:42:35;100613.14;;;-0.98;100.0
63691;BME280;49837;57.280;27.070;2023-04-05T01:43:36;100612.8;;;-0.95;100.0
63691;BME280;49837;57.280;27.070;2023-04-05T01:44:36;100603.88;;;-0.95;100.0
63691;BME280;49837;57.280;27.070;2023-04-05T01:45:36;100602.79;;;-0.93;100.0
63691;BME280;49837;57.280;27.070;2023-04-05T01:46:37;100603.0;;;-0.94;100.0
63691;BME280;49837;57.280;27.070;2023-04-05T01:47:37;100604.23;;;-0.94;100.0
63691;BME280;49837;57.280;27.070;2023-04-05T01:48:37;100606.59;;;-0.95;100.0
63691;BME280;49837;57.280;27.070;2023-04-05T01:49:38;100602.5;;;-0.98;100.0
63691;BME280;49837;57.280;27.070;2023-04-05T01:50:38;100604.51;;;-0.95;100.0
63691;BME280;49837;57.280;27.070;2023-04-05T01:51:38;100607.42;;;-0.9;100.0
63691;BME280;49837;57.280;27.070;2023-04-05T01:52:39;100604.94;;;-0.89;100.0
63691;BME280;49837;57.280;27.070;2023-04-05T01:53:39;100604.44;;;-0.88;100.0
63691;BME280;49837;57.280;27.070;2023-04-05T01:54:39;100605.78;;;-0.9;100.0
63691;BME280;49837;57.280;27.070;2023-04-05T01:55:40;100606.2;;;-0.91;100.0
63691;BME280;49837;57.280;27.070;2023-04-05T01:56:40;100609.06;;;-0.91;100.0
63691;BME280;49837;57.280;27.070;2023-04-05T01:57:40;100610.2;;;-0.9;100.0
63691;BME280;49837;57.280;27.070;2023-04-05T01:58:41;100610.75;;;-0.92;100.0
63691;BME280;49837;57.280;27.070;2023-04-05T01:59:41;100609.39;;;-0.94;100.0
63691;BME280;49837;57.280;27.070;2023-04-05T02:00:41;100610.62;;;-0.94;100.0
63691;BME280;49837;57.280;27.070;2023-04-05T02:01:42;100609.61;;;-0.92;100.0
63691;BME280;49837;57.280;27.070;2023-04-05T02:02:42;100613.62;;;-0.92;100.0
63691;BME280;49837;57.280;27.070;2023-04-05T02:03:42;100616.54;;;-0.9;100.0
63691;BME280;49837;57.280;27.070;2023-04-05T02:04:43;100616.23;;;-0.89;100.0
63691;BME280;49837;57.280;27.070;2023-04-05T02:05:43;100613.08;;;-0.91;100.0
63691;BME280;49837;57.280;27.070;2023-04-05T02:06:43;100618.29;;;-0.92;100.0
63691;BME280;49837;57.280;27.070;2023-04-05T02:07:44;100614.23;;;-0.94;100.0
63691;BME280;49837;57.280;27.070;2023-04-05T02:08:44;100614.96;;;-0.97;100.0
63691;BME280;49837;57.280;27.070;2023-04-05T02:09:44;100615.77;;;-0.99;100.0
63691;BME280;49837;57.280;27.070;2023-04-05T02:10:45;100617.16;;;-0.98;100.0
63691;BME280;49837;57.280;27.070;2023-04-05T02:11:45;100617.02;;;-0.97;100.0
63691;BME280;49837;57.280;27.070;2023-04-05T02:12:45;100617.58;;;-0.97;100.0
63691;BME280;49837;57.280;27.070;2023-04-05T02:13:46;100616.88;;;-0.96;100.0
63691;BME280;49837;57.280;27.070;2023-04-05T02:14:46;100619.58;;;-0.96;100.0
63691;BME280;49837;57.280;27.070;2023-04-05T02:15:49;100613.22;;;-0.98;100.0
63691;BME280;49837;57.280;27.070;2023-04-05T02:16:47;100616.42;;;-1.01;100.0
63691;BME280;49837;57.280;27.070;2023-04-05T02:17:47;100614.86;;;-1.01;100.0
63691;BME280;49837;57.280;27.070;2023-04-05T02:18:47;100613.89;;;-1.04;100.0
63691;BME280;49837;57.280;27.070;2023-04-05T02:19:48;100613.12;;;-1.06;100.0
63691;BME280;49837;57.280;27.070;2023-04-05T02:20:51;100610.07;;;-1.07;100.0
63691;BME280;49837;57.280;27.070;2023-04-05T02:21:49;100613.1;;;-1.09;100.0
63691;BME280;49837;57.280;27.070;2023-04-05T02:22:49;100607.84;;;-1.11;100.0
63691;BME280;49837;57.280;27.070;2023-04-05T02:23:49;100610.42;;;-1.09;100.0
63691;BME280;49837;57.280;27.070;2023-04-05T02:24:49;100611.09;;;-1.09;100.0
63691;BME280;49837;57.280;27.070;2023-04-05T02:25:50;100611.88;;;-1.1;100.0
63691;BME280;49837;57.280;27.070;2023-04-05T02:26:50;100611.95;;;-1.1;100.0
63691;BME280;49837;57.280;27.070;2023-04-05T02:27:50;100606.12;;;-1.1;100.0
63691;BME280;49837;57.280;27.070;2023-04-05T02:28:51;100604.67;;;-1.09;100.0
63691;BME280;49837;57.280;27.070;2023-04-05T02:29:51;100604.89;;;-1.11;100.0
63691;BME280;49837;57.280;27.070;2023-04-05T02:30:52;100607.98;;;-1.12;100.0
63691;BME280;49837;57.280;27.070;2023-04-05T02:31:52;100603.22;;;-1.09;100.0
63691;BME280;49837;57.280;27.070;2023-04-05T02:32:52;100599.24;;;-1.11;100.0
63691;BME280;49837;57.280;27.070;2023-04-05T02:33:52;100599.2;;;-1.09;100.0
63691;BME280;49837;57.280;27.070;2023-04-05T02:34:53;100597.79;;;-1.07;100.0
63691;BME280;49837;57.280;27.070;2023-04-05T02:35:53;100601.74;;;-1.06;100.0
63691;BME280;49837;57.280;27.070;2023-04-05T02:36:53;100600.55;;;-1.08;100.0
63691;BME280;49837;57.280;27.070;2023-04-05T02:37:54;100599.37;;;-1.05;100.0
63691;BME280;49837;57.280;27.070;2023-04-05T02:38:54;100600.8;;;-1.07;100.0
63691;BME280;49837;57.280;27.070;2023-04-05T02:39:54;100603.33;;;-1.07;100.0
63691;BME280;49837;57.280;27.070;2023-04-05T02:40:55;100601.12;;;-1.08;100.0
63691;BME280;49837;57.280;27.070;2023-04-05T02:41:55;100600.73;;;-1.06;100.0
63691;BME280;49837;57.280;27.070;2023-04-05T02:42:55;100610.17;;;-1.06;100.0
63691;BME280;49837;57.280;27.070;2023-04-05T02:43:56;100609.17;;;-1.09;100.0
63691;BME280;49837;57.280;27.070;2023-04-05T02:44:56;100606.36;;;-1.07;100.0
63691;BME280;49837;57.280;27.070;2023-04-05T02:45:56;100610.2;;;-1.08;100.0
63691;BME280;49837;57.280;27.070;2023-04-05T02:46:57;100608.95;;;-1.05;100.0
63691;BME280;49837;57.280;27.070;2023-04-05T02:47:57;100606.95;;;-1.0;100.0
63691;BME280;49837;57.280;27.070;2023-04-05T02:48:57;100602.12;;;-1.03;100.0
63691;BME280;49837;57.280;27.070;2023-04-05T02:49:58;100603.95;;;-1.06;100.0
63691;BME280;49837;57.280;27.070;2023-04-05T02:50:58;100600.27;;;-1.06;100.0
63691;BME280;49837;57.280;27.070;2023-04-05T02:51:58;100601.63;;;-1.03;100.0
63691;BME280;49837;57.280;27.070;2023-04-05T02:52:59;100600.11;;;-1.06;100.0
63691;BME280;49837;57.280;27.070;2023-04-05T02:54:01;100603.98;;;-1.05;100.0
63691;BME280;49837;57.280;27.070;2023-04-05T02:54:59;100606.3;;;-1.04;100.0
63691;BME280;49837;57.280;27.070;2023-04-05T02:56:00;100602.51;;;-1.07;100.0
63691;BME280;49837;57.280;27.070;2023-04-05T02:57:00;100608.57;;;-1.08;100.0
63691;BME280;49837;57.280;27.070;2023-04-05T02:58:00;100607.56;;;-1.09;100.0
63691;BME280;49837;57.280;27.070;2023-04-05T02:59:01;100611.19;;;-1.1;100.0
63691;BME280;49837;57.280;27.070;2023-04-05T03:00:02;100609.83;;;-1.1;100.0
63691;BME280;49837;57.280;27.070;2023-04-05T03:01:01;100611.41;;;-1.06;100.0
63691;BME280;49837;57.280;27.070;2023-04-05T03:02:02;100611.19;;;-1.04;100.0
63691;BME280;49837;57.280;27.070;2023-04-05T03:03:02;100612.52;;;-1.03;100.0
63691;BME280;49837;57.280;27.070;2023-04-05T03:04:03;100613.12;;;-1.08;100.0
63691;BME280;49837;57.280;27.070;2023-04-05T03:05:04;100611.03;;;-1.08;100.0
63691;BME280;49837;57.280;27.070;2023-04-05T03:06:05;100611.77;;;-1.08;100.0
63691;BME280;49837;57.280;27.070;2023-04-05T03:07:04;100612.39;;;-1.05;100.0
63691;BME280;49837;57.280;27.070;2023-04-05T03:08:04;100610.26;;;-1.05;100.0
63691;BME280;49837;57.280;27.070;2023-04-05T03:09:04;100613.17;;;-1.04;100.0
63691;BME280;49837;57.280;27.070;2023-04-05T03:10:05;100610.86;;;-1.07;100.0
63691;BME280;49837;57.280;27.070;2023-04-05T03:11:05;100614.33;;;-1.09;100.0
63691;BME280;49837;57.280;27.070;2023-04-05T03:12:05;100613.1;;;-1.09;100.0
63691;BME280;49837;57.280;27.070;2023-04-05T03:13:05;100610.51;;;-1.09;100.0
63691;BME280;49837;57.280;27.070;2023-04-05T03:14:06;100612.17;;;-1.07;100.0
63691;BME280;49837;57.280;27.070;2023-04-05T03:15:07;100606.98;;;-1.09;100.0
63691;BME280;49837;57.280;27.070;2023-04-05T03:16:07;100606.33;;;-1.08;100.0
63691;BME280;49837;57.280;27.070;2023-04-05T03:17:07;100604.94;;;-1.06;100.0
63691;BME280;49837;57.280;27.070;2023-04-05T03:18:07;100607.34;;;-1.05;100.0
63691;BME280;49837;57.280;27.070;2023-04-05T03:19:07;100608.3;;;-1.09;100.0
63691;BME280;49837;57.280;27.070;2023-04-05T03:20:09;100604.97;;;-1.11;100.0
63691;BME280;49837;57.280;27.070;2023-04-05T03:21:08;100609.06;;;-1.11;100.0
63691;BME280;49837;57.280;27.070;2023-04-05T03:22:09;100606.91;;;-1.09;100.0
63691;BME280;49837;57.280;27.070;2023-04-05T03:23:09;100607.42;;;-1.08;100.0
63691;BME280;49837;57.280;27.070;2023-04-05T03:24:09;100607.07;;;-1.09;100.0
63691;BME280;49837;57.280;27.070;2023-04-05T03:25:09;100605.47;;;-1.11;100.0
63691;BME280;49837;57.280;27.070;2023-04-05T03:26:10;100609.36;;;-1.12;100.0
63691;BME280;49837;57.280;27.070;2023-04-05T03:27:10;100611.33;;;-1.12;100.0
63691;BME280;49837;57.280;27.070;2023-04-05T03:28:10;100609.11;;;-1.06;100.0
63691;BME280;49837;57.280;27.070;2023-04-05T03:29:11;100611.95;;;-1.06;100.0
63691;BME280;49837;57.280;27.070;2023-04-05T03:30:12;100610.09;;;-1.08;100.0
63691;BME280;49837;57.280;27.070;2023-04-05T03:31:12;100612.42;;;-1.11;100.0
63691;BME280;49837;57.280;27.070;2023-04-05T03:32:12;100609.8;;;-1.11;100.0
63691;BME280;49837;57.280;27.070;2023-04-05T03:33:12;100613.59;;;-1.06;100.0
63691;BME280;49837;57.280;27.070;2023-04-05T03:34:12;100613.17;;;-1.0;100.0
63691;BME280;49837;57.280;27.070;2023-04-05T03:35:13;100609.73;;;-1.04;100.0
63691;BME280;49837;57.280;27.070;2023-04-05T03:36:13;100616.15;;;-1.02;100.0
63691;BME280;49837;57.280;27.070;2023-04-05T03:37:13;100611.78;;;-1.03;100.0
63691;BME280;49837;57.280;27.070;2023-04-05T03:38:14;100609.84;;;-1.02;100.0
63691;BME280;49837;57.280;27.070;2023-04-05T03:39:14;100615.25;;;-1.02;100.0
63691;BME280;49837;57.280;27.070;2023-04-05T03:40:15;100613.86;;;-1.02;100.0
63691;BME280;49837;57.280;27.070;2023-04-05T03:41:15;100612.14;;;-1.02;100.0
63691;BME280;49837;57.280;27.070;2023-04-05T03:42:15;100618.52;;;-1.02;100.0
63691;BME280;49837;57.280;27.070;2023-04-05T03:43:15;100614.34;;;-0.99;100.0
63691;BME280;49837;57.280;27.070;2023-04-05T03:44:16;100614.45;;;-0.98;100.0
63691;BME280;49837;57.280;27.070;2023-04-05T03:45:16;100613.39;;;-1.01;100.0
63691;BME280;49837;57.280;27.070;2023-04-05T03:46:20;100615.55;;;-1.03;100.0
63691;BME280;49837;57.280;27.070;2023-04-05T03:47:20;100617.79;;;-1.03;100.0
63691;BME280;49837;57.280;27.070;2023-04-05T03:48:20;100619.75;;;-1.03;100.0
63691;BME280;49837;57.280;27.070;2023-04-05T03:49:21;100621.85;;;-1.03;100.0
63691;BME280;49837;57.280;27.070;2023-04-05T03:50:21;100617.92;;;-1.06;100.0
63691;BME280;49837;57.280;27.070;2023-04-05T03:51:22;100621.47;;;-1.02;100.0
63691;BME280;49837;57.280;27.070;2023-04-05T03:52:22;100623.71;;;-1.05;100.0
63691;BME280;49837;57.280;27.070;2023-04-05T03:53:22;100616.53;;;-1.03;100.0
63691;BME280;49837;57.280;27.070;2023-04-05T03:54:23;100621.64;;;-1.02;100.0
63691;BME280;49837;57.280;27.070;2023-04-05T03:55:23;100622.48;;;-1.01;100.0
63691;BME280;49837;57.280;27.070;2023-04-05T03:56:23;100625.42;;;-0.99;100.0
63691;BME280;49837;57.280;27.070;2023-04-05T03:57:24;100624.69;;;-0.98;100.0
63691;BME280;49837;57.280;27.070;2023-04-05T03:58:27;100623.95;;;-0.95;100.0
63691;BME280;49837;57.280;27.070;2023-04-05T03:59:24;100625.72;;;-0.99;100.0
63691;BME280;49837;57.280;27.070;2023-04-05T04:00:24;100626.08;;;-1.01;100.0
63691;BME280;49837;57.280;27.070;2023-04-05T04:01:25;100627.03;;;-1.0;100.0
63691;BME280;49837;57.280;27.070;2023-04-05T04:02:25;100627.23;;;-0.99;100.0
63691;BME280;49837;57.280;27.070;2023-04-05T04:03:26;100628.86;;;-0.95;100.0
63691;BME280;49837;57.280;27.070;2023-04-05T04:04:26;100630.27;;;-0.94;100.0
63691;BME280;49837;57.280;27.070;2023-04-05T04:05:26;100631.34;;;-0.91;100.0
63691;BME280;49837;57.280;27.070;2023-04-05T04:06:27;100633.87;;;-0.88;100.0
63691;BME280;49837;57.280;27.070;2023-04-05T04:07:27;100632.03;;;-0.85;100.0
63691;BME280;49837;57.280;27.070;2023-04-05T04:08:27;100643.45;;;-0.85;100.0
63691;BME280;49837;57.280;27.070;2023-04-05T04:09:28;100638.64;;;-0.86;100.0
63691;BME280;49837;57.280;27.070;2023-04-05T04:10:28;100643.17;;;-0.89;100.0
63691;BME280;49837;57.280;27.070;2023-04-05T04:11:28;100637.64;;;-0.91;100.0
63691;BME280;49837;57.280;27.070;2023-04-05T04:12:29;100633.97;;;-0.86;100.0
63691;BME280;49837;57.280;27.070;2023-04-05T04:13:29;100636.8;;;-0.82;100.0
63691;BME280;49837;57.280;27.070;2023-04-05T04:14:29;100639.02;;;-0.81;100.0
63691;BME280;49837;57.280;27.070;2023-04-05T04:15:29;100634.0;;;-0.85;100.0
63691;BME280;49837;57.280;27.070;2023-04-05T04:16:30;100635.36;;;-0.83;100.0
63691;BME280;49837;57.280;27.070;2023-04-05T04:17:35;100635.0;;;-0.82;100.0
63691;BME280;49837;57.280;27.070;2023-04-05T04:18:32;100634.84;;;-0.84;100.0
63691;BME280;49837;57.280;27.070;2023-04-05T04:19:33;100641.11;;;-0.79;100.0
63691;BME280;49837;57.280;27.070;2023-04-05T04:20:33;100643.16;;;-0.79;100.0
63691;BME280;49837;57.280;27.070;2023-04-05T04:21:34;100640.44;;;-0.8;100.0
63691;BME280;49837;57.280;27.070;2023-04-05T04:22:34;100643.39;;;-0.83;100.0
63691;BME280;49837;57.280;27.070;2023-04-05T04:23:34;100643.39;;;-0.87;100.0
63691;BME280;49837;57.280;27.070;2023-04-05T04:24:34;100642.27;;;-0.82;100.0
63691;BME280;49837;57.280;27.070;2023-04-05T04:25:35;100642.45;;;-0.78;100.0
63691;BME280;49837;57.280;27.070;2023-04-05T04:26:35;100641.8;;;-0.78;100.0
63691;BME280;49837;57.280;27.070;2023-04-05T04:27:39;100641.14;;;-0.78;100.0
63691;BME280;49837;57.280;27.070;2023-04-05T04:28:37;100646.5;;;-0.72;100.0
63691;BME280;49837;57.280;27.070;2023-04-05T04:29:37;100644.4;;;-0.71;100.0
63691;BME280;49837;57.280;27.070;2023-04-05T04:30:37;100646.5;;;-0.7;100.0
63691;BME280;49837;57.280;27.070;2023-04-05T04:31:38;100649.64;;;-0.69;100.0
63691;BME280;49837;57.280;27.070;2023-04-05T04:32:39;100649.2;;;-0.69;100.0
63691;BME280;49837;57.280;27.070;2023-04-05T04:33:38;100649.98;;;-0.67;100.0
63691;BME280;49837;57.280;27.070;2023-04-05T04:34:39;100648.97;;;-0.65;100.0
63691;BME280;49837;57.280;27.070;2023-04-05T04:35:39;100650.95;;;-0.71;100.0
63691;BME280;49837;57.280;27.070;2023-04-05T04:36:40;100654.33;;;-0.68;100.0
63691;BME280;49837;57.280;27.070;2023-04-05T04:37:40;100651.16;;;-0.66;100.0
63691;BME280;49837;57.280;27.070;2023-04-05T04:38:41;100652.74;;;-0.65;100.0
63691;BME280;49837;57.280;27.070;2023-04-05T04:39:40;100653.92;;;-0.67;100.0
63691;BME280;49837;57.280;27.070;2023-04-05T04:40:41;100652.98;;;-0.65;100.0
63691;BME280;49837;57.280;27.070;2023-04-05T04:41:44;100659.2;;;-0.62;100.0
63691;BME280;49837;57.280;27.070;2023-04-05T04:42:42;100656.99;;;-0.62;100.0
63691;BME280;49837;57.280;27.070;2023-04-05T04:43:42;100658.39;;;-0.62;100.0
63691;BME280;49837;57.280;27.070;2023-04-05T04:44:42;100658.3;;;-0.62;100.0
63691;BME280;49837;57.280;27.070;2023-04-05T04:45:43;100665.37;;;-0.58;100.0
63691;BME280;49837;57.280;27.070;2023-04-05T04:46:43;100660.69;;;-0.55;100.0
63691;BME280;49837;57.280;27.070;2023-04-05T04:47:47;100663.05;;;-0.51;100.0
63691;BME280;49837;57.280;27.070;2023-04-05T04:48:45;100662.38;;;-0.5;100.0
63691;BME280;49837;57.280;27.070;2023-04-05T04:49:45;100661.98;;;-0.48;100.0
63691;BME280;49837;57.280;27.070;2023-04-05T04:50:47;100663.8;;;-0.52;100.0
63691;BME280;49837;57.280;27.070;2023-04-05T04:51:46;100663.7;;;-0.48;100.0
63691;BME280;49837;57.280;27.070;2023-04-05T04:52:46;100663.43;;;-0.39;100.0
63691;BME280;49837;57.280;27.070;2023-04-05T04:53:46;100666.18;;;-0.37;100.0
63691;BME280;49837;57.280;27.070;2023-04-05T04:54:47;100663.59;;;-0.38;100.0
63691;BME280;49837;57.280;27.070;2023-04-05T04:55:47;100662.47;;;-0.38;100.0
63691;BME280;49837;57.280;27.070;2023-04-05T04:56:47;100662.88;;;-0.38;100.0
63691;BME280;49837;57.280;27.070;2023-04-05T04:57:51;100659.02;;;-0.42;100.0
63691;BME280;49837;57.280;27.070;2023-04-05T04:58:48;100656.06;;;-0.42;100.0
63691;BME280;49837;57.280;27.070;2023-04-05T04:59:49;100652.73;;;-0.44;100.0
63691;BME280;49837;57.280;27.070;2023-04-05T05:00:49;100653.82;;;-0.4;100.0
63691;BME280;49837;57.280;27.070;2023-04-05T05:01:49;100654.73;;;-0.38;100.0
63691;BME280;49837;57.280;27.070;2023-04-05T05:02:51;100660.97;;;-0.38;100.0
63691;BME280;49837;57.280;27.070;2023-04-05T05:03:50;100659.75;;;-0.42;100.0
63691;BME280;49837;57.280;27.070;2023-04-05T05:04:50;100660.7;;;-0.42;100.0
63691;BME280;49837;57.280;27.070;2023-04-05T05:05:51;100663.44;;;-0.42;100.0
63691;BME280;49837;57.280;27.070;2023-04-05T05:06:52;100667.45;;;-0.34;100.0
63691;BME280;49837;57.280;27.070;2023-04-05T05:07:51;100669.79;;;-0.37;100.0
63691;BME280;49837;57.280;27.070;2023-04-05T05:08:52;100665.88;;;-0.35;100.0
63691;BME280;49837;57.280;27.070;2023-04-05T05:09:52;100665.95;;;-0.32;100.0
63691;BME280;49837;57.280;27.070;2023-04-05T05:10:52;100668.41;;;-0.33;100.0
63691;BME280;49837;57.280;27.070;2023-04-05T05:11:53;100666.33;;;-0.33;100.0
63691;BME280;49837;57.280;27.070;2023-04-05T05:12:53;100662.84;;;-0.28;100.0
63691;BME280;49837;57.280;27.070;2023-04-05T05:13:53;100666.59;;;-0.3;100.0
63691;BME280;49837;57.280;27.070;2023-04-05T05:14:54;100666.94;;;-0.28;100.0
63691;BME280;49837;57.280;27.070;2023-04-05T05:15:54;100665.39;;;-0.28;100.0
63691;BME280;49837;57.280;27.070;2023-04-05T05:16:54;100669.55;;;-0.3;100.0
63691;BME280;49837;57.280;27.070;2023-04-05T05:17:55;100668.45;;;-0.3;100.0
63691;BME280;49837;57.280;27.070;2023-04-05T05:18:55;100673.34;;;-0.28;100.0
63691;BME280;49837;57.280;27.070;2023-04-05T05:19:55;100671.16;;;-0.23;100.0
63691;BME280;49837;57.280;27.070;2023-04-05T05:20:56;100670.78;;;-0.18;100.0
63691;BME280;49837;57.280;27.070;2023-04-05T05:21:56;100674.12;;;-0.08;100.0
63691;BME280;49837;57.280;27.070;2023-04-05T05:22:57;100672.34;;;-0.1;100.0
63691;BME280;49837;57.280;27.070;2023-04-05T05:23:57;100677.14;;;-0.15;100.0
63691;BME280;49837;57.280;27.070;2023-04-05T05:24:57;100676.41;;;-0.18;100.0
63691;BME280;49837;57.280;27.070;2023-04-05T05:25:58;100679.52;;;-0.2;100.0
63691;BME280;49837;57.280;27.070;2023-04-05T05:26:58;100675.89;;;-0.17;100.0
63691;BME280;49837;57.280;27.070;2023-04-05T05:27:58;100674.78;;;-0.14;100.0
63691;BME280;49837;57.280;27.070;2023-04-05T05:29:01;100676.77;;;-0.18;100.0
63691;BME280;49837;57.280;27.070;2023-04-05T05:29:59;100678.25;;;-0.13;100.0
63691;BME280;49837;57.280;27.070;2023-04-05T05:30:59;100684.23;;;-0.18;100.0